Overview Statistics Trail Chart Weather Telemetry Raw packets
 

This is the latest recevied packets stored in our database for station/object IS0KNW-10. If no packets are shown the sender has not sent any packets the latest 24 hours.

If you compare the raw packets with similar data from other websites it may differ (especially the path), the reason is that we are not collecting packets from the same APRS-IS servers. Each APRS-IS server performes duplicate filtering, and which packet that is considered to be a duplicate may differ depending on which APRS-IS server you receive your data from.

<< 1 2 3 4 >>

1788610287: IS0KNW-10>APRSGW,TCPIP*,qAR,IS0KNW-10::IS0KNW-10:PARM.Press,Temp.in,Hum,QNH,Temp.out,track,-,-,-,-,-,-,-

1788610287: IS0KNW-10>APRSGW,TCPIP*,qAR,IS0KNW-10:T#701,997.0,37.0,28.0,1025.3,0.0,00000000

1788610287: IS0KNW-10>APRSGW,TCPIP*,qAR,IS0KNW-10::IS0KNW-10:UNIT.hPa,C deg,%,hPa,C deg,Y/N,O/N,O/N,O/N,O/N,O/N,O/N,O/N

1788610287: IS0KNW-10>APRSGW,TCPIP*,qAR,IS0KNW-10::IS0KNW-10:EQNS.0,1,0,0,1,0,0,1,0,0,1,0,0,1,0

1788610287: IS0KNW-10>APRSGW,TCPIP*,qAR,IS0KNW-10:!3922.20N/00910.49E-#ERAC Franco/B=100/A=000827/N5

1788608457: IS0KNW-10>APRSGW,TCPIP*,qAR,IS0KNW-10:T#700,997.2,35.7,29.1,1025.6,0.0,00000000

1788608457: IS0KNW-10>APRSGW,TCPIP*,qAR,IS0KNW-10:!3922.20N/00910.49E-#ERAC Franco/B=100/A=000827/N5

1788606626: IS0KNW-10>APRSGW,TCPIP*,qAR,IS0KNW-10:T#699,997.4,34.8,29.9,1025.9,0.0,00000000

1788606626: IS0KNW-10>APRSGW,TCPIP*,qAR,IS0KNW-10:!3922.20N/00910.49E-#ERAC Franco/B=100/A=000827/N6

1788604796: IS0KNW-10>APRSGW,TCPIP*,qAR,IS0KNW-10:T#698,997.6,34.0,31.8,1026.2,0.0,00000000

1788604796: IS0KNW-10>APRSGW,TCPIP*,qAR,IS0KNW-10:!3922.20N/00910.49E-#ERAC Franco/B=100/A=000827/N7

1788602966: IS0KNW-10>APRSGW,TCPIP*,qAR,IS0KNW-10:!3922.20N/00910.49E-#ERAC Franco/B=100/A=000827/N8

1788602966: IS0KNW-10>APRSGW,TCPIP*,qAR,IS0KNW-10:T#697,997.8,33.2,33.2,1026.5,0.0,00000000

1788601136: IS0KNW-10>APRSGW,TCPIP*,qAR,IS0KNW-10:T#696,998.0,32.3,34.2,1026.9,0.0,00000000

1788601136: IS0KNW-10>APRSGW,TCPIP*,qAR,IS0KNW-10:!3922.20N/00910.49E-#ERAC Franco/B=100/A=000830/N7

1788599306: IS0KNW-10>APRSGW,TCPIP*,qAR,IS0KNW-10:T#695,998.2,31.3,35.7,1027.2,0.0,00000000

1788599306: IS0KNW-10>APRSGW,TCPIP*,qAR,IS0KNW-10:!3922.20N/00910.49E-#ERAC Franco/B=100/A=000830/N6

1788597476: IS0KNW-10>APRSGW,TCPIP*,qAR,IS0KNW-10:T#694,998.1,30.3,37.1,1027.2,0.0,00000000

1788597476: IS0KNW-10>APRSGW,TCPIP*,qAR,IS0KNW-10:!3922.20N/00910.49E-#ERAC Franco/B=100/A=000830/N6

1788595646: IS0KNW-10>APRSGW,TCPIP*,qAR,IS0KNW-10:T#693,997.9,29.1,38.5,1027.1,0.0,00000000

1788595646: IS0KNW-10>APRSGW,TCPIP*,qAR,IS0KNW-10:!3922.20N/00910.49E-#ERAC Franco/B=100/A=000830/N4

1788593816: IS0KNW-10>APRSGW,TCPIP*,qAR,IS0KNW-10:T#692,997.9,28.1,39.6,1027.2,0.0,00000000

1788593816: IS0KNW-10>APRSGW,TCPIP*,qAR,IS0KNW-10:!3922.20N/00910.49E-#ERAC Franco/B=100/A=000830/N5

1788591985: IS0KNW-10>APRSGW,TCPIP*,qAR,IS0KNW-10:T#691,997.8,27.6,39.9,1027.2,0.0,00000000

1788591985: IS0KNW-10>APRSGW,TCPIP*,qAR,IS0KNW-10::IS0KNW-10:EQNS.0,1,0,0,1,0,0,1,0,0,1,0,0,1,0